Terminal Aerodrome Forecast
Issued by NWS Sioux Falls, SD

Home | Current Version | Previous Version | Graphics & Text | Print | Product List | Glossary On
Versions: 1 2 3 4 5 6 7 8 9 10 11 12 13 14
000
FTUS43 KFSD 251740
TAFHON
TAF
KHON 251740Z 2518/2618 02007KT P6SM OVC025
     FM251900 01011KT P6SM BKN035
     FM260200 36005KT P6SM SCT035 OVC080
     FM261400 04009KT P6SM SCT025 BKN150=

USA.gov is the U.S. government's official web portal to all federal, state and local government web resources and services.